createdAt,value
2022-12-29T00:00:55.985Z,10.70
2022-12-29T00:03:22.831Z,10.70
2022-12-29T00:05:58.720Z,10.70
2022-12-29T00:08:40.432Z,10.80
2022-12-29T00:11:19.490Z,10.80
2022-12-29T00:14:05.491Z,10.80
2022-12-29T00:16:34.192Z,10.90
2022-12-29T00:19:01.554Z,10.90
2022-12-29T00:21:47.680Z,10.90
2022-12-29T00:24:26.489Z,10.90
2022-12-29T00:27:18.676Z,10.90
2022-12-29T00:30:05.185Z,10.90
2022-12-29T00:32:50.415Z,10.80
2022-12-29T00:35:27.587Z,10.80
2022-12-29T00:38:14.921Z,10.90
2022-12-29T00:41:00.688Z,10.90
2022-12-29T00:43:45.901Z,10.90
2022-12-29T00:46:19.263Z,10.90
2022-12-29T00:49:05.767Z,10.90
2022-12-29T00:51:32.728Z,10.90
2022-12-29T00:53:59.489Z,10.90
2022-12-29T00:56:26.169Z,10.90
2022-12-29T00:58:52.876Z,10.90
2022-12-29T01:01:19.765Z,10.90
2022-12-29T01:03:46.517Z,10.90
2022-12-29T01:06:15.179Z,10.80
2022-12-29T01:08:41.899Z,10.80
2022-12-29T01:11:13.268Z,10.80
2022-12-29T01:13:42.164Z,10.80
2022-12-29T01:16:09.167Z,10.80
2022-12-29T01:18:36.063Z,10.80
2022-12-29T01:21:05.662Z,10.70
2022-12-29T01:23:33.018Z,10.70
2022-12-29T01:26:13.467Z,10.60
2022-12-29T01:28:42.395Z,10.60
2022-12-29T01:31:10.875Z,10.50
2022-12-29T01:33:37.946Z,10.40
2022-12-29T01:36:06.990Z,10.40
2022-12-29T01:38:35.267Z,10.40
2022-12-29T01:41:02.048Z,10.30
2022-12-29T01:43:49.277Z,10.30
2022-12-29T01:46:27.960Z,10.30
2022-12-29T01:49:12.732Z,10.30
2022-12-29T01:52:05.157Z,10.30
2022-12-29T01:54:33.791Z,10.30
2022-12-29T01:57:03.911Z,10.30
2022-12-29T01:59:35.205Z,10.30
2022-12-29T02:02:02.837Z,10.30
2022-12-29T02:04:33.492Z,10.30
2022-12-29T02:07:08.823Z,10.40
2022-12-29T02:09:35.644Z,10.30
2022-12-29T02:12:03.022Z,10.30
2022-12-29T02:14:30.808Z,10.30
2022-12-29T02:17:25.345Z,10.30
2022-12-29T02:20:13.802Z,10.30
2022-12-29T02:22:40.509Z,10.30
2022-12-29T02:25:13.013Z,10.30
2022-12-29T02:27:51.265Z,10.30
2022-12-29T02:30:32.064Z,10.30
2022-12-29T02:33:37.818Z,10.30
2022-12-29T02:36:24.611Z,10.30
2022-12-29T02:39:27.699Z,10.30
2022-12-29T02:42:00.226Z,10.30
2022-12-29T02:44:37.681Z,10.40
2022-12-29T02:47:29.365Z,10.40
2022-12-29T02:50:12.451Z,10.50
2022-12-29T02:52:52.568Z,10.50
2022-12-29T02:55:19.392Z,10.60
2022-12-29T02:57:46.202Z,10.50
2022-12-29T03:00:17.005Z,10.50
2022-12-29T03:02:48.265Z,10.50
2022-12-29T03:05:22.715Z,10.50
2022-12-29T03:08:35.740Z,10.40
2022-12-29T03:11:32.196Z,10.40
2022-12-29T03:14:46.569Z,10.30
2022-12-29T03:17:38.752Z,10.30
2022-12-29T03:20:09.434Z,10.20
2022-12-29T03:22:44.115Z,10.20
2022-12-29T03:25:23.354Z,10.20
2022-12-29T03:27:59.493Z,10.20
2022-12-29T03:30:30.046Z,10.20
2022-12-29T03:33:04.657Z,10.20
2022-12-29T03:35:37.200Z,10.20
2022-12-29T03:38:23.257Z,10.20
2022-12-29T03:40:57.197Z,10.20
2022-12-29T03:43:27.054Z,10.10
2022-12-29T03:45:55.376Z,10.10
2022-12-29T03:48:22.886Z,10.10
2022-12-29T03:50:51.328Z,10.00
2022-12-29T03:53:18.459Z,10.00
2022-12-29T03:55:45.752Z,10.00
2022-12-29T03:58:12.602Z,9.90
2022-12-29T04:00:51.232Z,9.90
2022-12-29T04:03:18.518Z,9.90
2022-12-29T04:05:45.411Z,9.90
2022-12-29T04:08:12.354Z,9.90
2022-12-29T04:10:39.297Z,9.80
2022-12-29T04:13:06.545Z,9.80
2022-12-29T04:15:35.529Z,9.80
2022-12-29T04:18:02.665Z,9.80
2022-12-29T04:20:48.107Z,9.80
2022-12-29T04:23:14.951Z,9.80
2022-12-29T04:25:42.040Z,9.80
2022-12-29T04:28:10.057Z,9.90
2022-12-29T04:30:45.424Z,10.00
2022-12-29T04:33:22.625Z,10.00
2022-12-29T04:35:49.643Z,10.00
2022-12-29T04:38:17.367Z,10.00
2022-12-29T04:40:45.704Z,10.00
2022-12-29T04:43:13.747Z,10.00
2022-12-29T04:46:00.360Z,10.00
2022-12-29T04:48:33.238Z,10.10
2022-12-29T04:51:20.057Z,10.10
2022-12-29T04:53:46.896Z,10.10
2022-12-29T04:56:13.576Z,10.10
2022-12-29T04:58:40.923Z,10.10
2022-12-29T05:01:07.744Z,10.00
2022-12-29T05:03:34.834Z,10.00
2022-12-29T05:06:01.600Z,10.00
2022-12-29T05:08:28.797Z,10.00
2022-12-29T05:10:58.705Z,10.00
2022-12-29T05:13:26.241Z,10.00
2022-12-29T05:15:54.263Z,10.00
2022-12-29T05:18:23.125Z,10.00
2022-12-29T05:20:50.482Z,9.90
2022-12-29T05:23:18.907Z,9.90
2022-12-29T05:25:50.529Z,9.90
2022-12-29T05:28:36.032Z,9.90
2022-12-29T05:31:12.269Z,9.90
2022-12-29T05:33:39.353Z,9.80
2022-12-29T05:36:08.378Z,9.80
2022-12-29T05:38:37.156Z,9.80
2022-12-29T05:41:04.135Z,9.80
2022-12-29T05:43:53.957Z,9.80
2022-12-29T05:46:39.716Z,9.80
2022-12-29T05:49:10.925Z,9.80
2022-12-29T05:51:57.900Z,9.90
2022-12-29T05:54:24.701Z,9.80
2022-12-29T05:56:52.186Z,9.80
2022-12-29T05:59:18.846Z,9.70
2022-12-29T06:01:46.303Z,9.80
2022-12-29T06:04:13.262Z,9.80
2022-12-29T06:06:40.812Z,9.90
2022-12-29T06:09:13.044Z,9.80
2022-12-29T06:11:39.851Z,9.90
2022-12-29T06:14:06.632Z,9.90
2022-12-29T06:16:33.990Z,9.90
2022-12-29T06:19:02.936Z,9.90
2022-12-29T06:21:30.585Z,9.90
2022-12-29T06:24:00.571Z,9.90
2022-12-29T06:26:27.278Z,9.90
2022-12-29T06:28:54.057Z,9.90
2022-12-29T06:31:20.920Z,9.90
2022-12-29T06:33:50.205Z,9.90
2022-12-29T06:36:17.438Z,9.90
2022-12-29T06:38:44.350Z,9.80
2022-12-29T06:41:11.027Z,9.80
2022-12-29T06:43:39.091Z,9.80
2022-12-29T06:46:15.841Z,9.70
2022-12-29T06:48:43.917Z,9.70
2022-12-29T06:51:10.602Z,9.70
2022-12-29T06:53:40.434Z,9.70
2022-12-29T06:56:07.555Z,9.70
2022-12-29T06:58:34.268Z,9.70
2022-12-29T07:01:00.948Z,9.70
2022-12-29T07:03:27.722Z,9.70
2022-12-29T07:05:55.468Z,9.70
2022-12-29T07:08:22.128Z,9.60
2022-12-29T07:10:48.943Z,9.50
2022-12-29T07:13:15.943Z,9.30
2022-12-29T07:15:42.742Z,9.20
2022-12-29T07:18:09.397Z,9.10
2022-12-29T07:20:36.105Z,9.00
2022-12-29T07:23:03.430Z,8.80
2022-12-29T07:25:30.507Z,8.80
2022-12-29T07:27:57.366Z,8.60
2022-12-29T07:30:24.131Z,8.60
2022-12-29T07:32:50.872Z,8.60
2022-12-29T07:35:17.706Z,8.60
2022-12-29T07:37:44.644Z,8.50
2022-12-29T07:40:11.755Z,8.50
2022-12-29T07:42:38.522Z,8.50
2022-12-29T07:45:10.127Z,8.40
2022-12-29T07:47:54.197Z,8.40
2022-12-29T07:50:20.937Z,8.40
2022-12-29T07:52:48.800Z,8.50
2022-12-29T07:55:16.983Z,8.50
2022-12-29T07:57:44.080Z,8.50
2022-12-29T08:00:11.441Z,8.60
2022-12-29T08:02:41.132Z,8.70
2022-12-29T08:05:08.245Z,8.80
2022-12-29T08:07:34.954Z,8.80
2022-12-29T08:10:02.478Z,8.90
2022-12-29T08:12:29.213Z,8.90
2022-12-29T08:14:56.023Z,8.90
2022-12-29T08:17:22.754Z,8.90
2022-12-29T08:19:52.727Z,9.00
2022-12-29T08:22:19.674Z,9.00
2022-12-29T08:24:46.492Z,9.00
2022-12-29T08:27:19.925Z,9.10
2022-12-29T08:29:47.898Z,9.20
2022-12-29T08:32:14.699Z,9.20
2022-12-29T08:34:41.548Z,9.20
2022-12-29T08:37:08.371Z,9.30
2022-12-29T08:39:35.517Z,9.30
2022-12-29T08:42:04.004Z,9.30
2022-12-29T08:44:30.951Z,9.30
2022-12-29T08:46:57.959Z,9.30
2022-12-29T08:49:24.822Z,9.30
2022-12-29T08:51:57.935Z,9.30
2022-12-29T08:54:24.789Z,9.30
2022-12-29T08:56:51.835Z,9.30
2022-12-29T08:59:19.439Z,9.30
2022-12-29T09:01:48.214Z,9.30
2022-12-29T09:04:16.978Z,9.20
2022-12-29T09:06:45.863Z,9.20
2022-12-29T09:09:13.138Z,9.20
2022-12-29T09:11:40.764Z,9.20
2022-12-29T09:14:07.799Z,9.20
2022-12-29T09:16:35.373Z,9.20
2022-12-29T09:19:05.552Z,9.20
2022-12-29T09:21:32.633Z,9.20
2022-12-29T09:23:59.469Z,9.20
2022-12-29T09:26:26.263Z,9.20
2022-12-29T09:28:53.458Z,9.20
2022-12-29T09:31:20.247Z,9.20
2022-12-29T09:33:47.579Z,9.30
2022-12-29T09:36:14.254Z,9.30
2022-12-29T09:38:41.106Z,9.30
2022-12-29T09:41:27.378Z,9.20
2022-12-29T09:44:26.999Z,9.20
2022-12-29T09:46:56.125Z,9.10
2022-12-29T09:49:53.696Z,9.10
2022-12-29T09:52:30.514Z,9.00
2022-12-29T09:55:11.987Z,8.90
2022-12-29T09:57:48.804Z,8.90
2022-12-29T10:00:20.053Z,8.90
2022-12-29T10:03:20.899Z,8.90
2022-12-29T10:06:00.410Z,9.00
2022-12-29T10:08:59.955Z,9.00
2022-12-29T10:12:08.536Z,9.00
2022-12-29T10:15:13.608Z,9.00
2022-12-29T10:18:05.105Z,9.10
2022-12-29T10:20:34.541Z,9.10
2022-12-29T10:23:21.625Z,9.10
2022-12-29T10:25:48.717Z,9.10
2022-12-29T10:28:23.102Z,9.00
2022-12-29T10:30:53.549Z,9.00
2022-12-29T10:33:25.134Z,9.00
2022-12-29T10:35:52.412Z,9.00
2022-12-29T10:38:32.257Z,9.00
2022-12-29T10:41:10.203Z,8.90
2022-12-29T10:43:50.441Z,8.90
2022-12-29T10:46:24.828Z,9.00
2022-12-29T10:48:51.622Z,8.90
2022-12-29T10:51:27.182Z,8.90
2022-12-29T10:54:08.155Z,8.80
2022-12-29T10:56:40.683Z,8.90
2022-12-29T10:59:13.177Z,8.90
2022-12-29T11:02:07.152Z,8.90
2022-12-29T11:05:03.355Z,8.90
2022-12-29T11:07:31.379Z,9.00
2022-12-29T11:10:20.686Z,9.00
2022-12-29T11:13:03.171Z,9.00
2022-12-29T11:15:45.839Z,9.10
2022-12-29T11:18:20.149Z,9.10
2022-12-29T11:20:47.480Z,9.10
2022-12-29T11:23:35.195Z,9.10
2022-12-29T11:26:31.810Z,9.20
2022-12-29T11:29:15.256Z,9.20
2022-12-29T11:31:43.660Z,9.30
2022-12-29T11:34:31.353Z,9.30
2022-12-29T11:37:31.483Z,9.30
2022-12-29T11:40:04.187Z,9.20
2022-12-29T11:42:42.781Z,9.20
2022-12-29T11:45:29.002Z,9.10
2022-12-29T11:47:58.518Z,9.20
2022-12-29T11:50:37.009Z,9.20
2022-12-29T11:53:37.895Z,9.20
2022-12-29T11:56:12.041Z,9.20
2022-12-29T11:58:39.948Z,9.20
2022-12-29T12:01:37.973Z,9.20
2022-12-29T12:04:12.699Z,9.20
2022-12-29T12:06:50.247Z,9.30
2022-12-29T12:09:26.075Z,9.30
2022-12-29T12:11:54.901Z,9.30
2022-12-29T12:14:31.612Z,9.40
2022-12-29T12:17:47.426Z,9.50
2022-12-29T12:20:23.128Z,10.10
2022-12-29T12:23:09.568Z,10.40
2022-12-29T12:25:41.505Z,10.30
2022-12-29T12:28:20.805Z,10.20
2022-12-29T12:30:51.258Z,10.30
2022-12-29T12:33:53.361Z,10.50
2022-12-29T12:36:52.139Z,10.80
2022-12-29T12:39:34.807Z,11.10
2022-12-29T12:42:24.443Z,11.00
2022-12-29T12:45:14.644Z,10.80
2022-12-29T12:48:19.321Z,10.70
2022-12-29T12:51:07.545Z,10.50
2022-12-29T12:54:11.629Z,10.40
2022-12-29T12:56:41.248Z,10.30
2022-12-29T12:59:32.912Z,10.20
2022-12-29T13:02:18.640Z,10.20
2022-12-29T13:04:53.857Z,10.20
2022-12-29T13:07:33.446Z,10.20
2022-12-29T13:10:24.803Z,10.10
2022-12-29T13:13:15.624Z,10.10
2022-12-29T13:15:42.442Z,10.10
2022-12-29T13:18:26.816Z,10.10
2022-12-29T13:21:19.868Z,10.10
2022-12-29T13:24:16.306Z,10.10
2022-12-29T13:26:51.629Z,10.10
2022-12-29T13:29:58.864Z,10.00
2022-12-29T13:32:44.367Z,10.00
2022-12-29T13:35:17.288Z,9.80
2022-12-29T13:37:55.423Z,9.70
2022-12-29T13:40:29.545Z,9.60
2022-12-29T13:42:57.565Z,9.60
2022-12-29T13:45:27.291Z,9.50
2022-12-29T13:48:17.491Z,9.50
2022-12-29T13:50:47.700Z,9.50
2022-12-29T13:53:42.088Z,9.50
2022-12-29T13:56:14.078Z,9.50
2022-12-29T13:59:01.762Z,9.50
2022-12-29T14:01:31.233Z,9.50
2022-12-29T14:04:00.823Z,9.50
2022-12-29T14:06:32.887Z,9.50
2022-12-29T14:09:06.373Z,9.50
2022-12-29T14:11:38.945Z,9.50
2022-12-29T14:14:26.000Z,9.50
2022-12-29T14:16:53.977Z,9.40
2022-12-29T14:19:24.643Z,9.40
2022-12-29T14:22:11.094Z,9.30
2022-12-29T14:24:46.661Z,9.20
2022-12-29T14:27:13.383Z,9.20
2022-12-29T14:29:40.052Z,9.10
2022-12-29T14:32:25.491Z,9.00
2022-12-29T14:34:56.467Z,8.90
2022-12-29T14:37:27.533Z,8.90
2022-12-29T14:40:23.255Z,8.70
2022-12-29T14:42:52.090Z,8.60
2022-12-29T14:45:19.691Z,8.60
2022-12-29T14:47:51.397Z,8.50
2022-12-29T14:50:22.195Z,8.50
2022-12-29T14:53:02.881Z,8.50
2022-12-29T14:55:42.232Z,8.50
2022-12-29T14:58:27.011Z,8.50
2022-12-29T15:00:54.319Z,8.50
2022-12-29T15:03:30.275Z,8.50
2022-12-29T15:06:09.812Z,8.50
2022-12-29T15:08:51.381Z,8.60
2022-12-29T15:11:42.024Z,8.60
2022-12-29T15:14:40.507Z,8.60
2022-12-29T15:17:32.154Z,8.70
2022-12-29T15:20:01.133Z,8.70
2022-12-29T15:22:29.116Z,8.70
2022-12-29T15:24:57.277Z,8.80
2022-12-29T15:27:26.632Z,8.70
2022-12-29T15:29:59.405Z,8.80
2022-12-29T15:32:28.177Z,8.80
2022-12-29T15:34:57.035Z,8.80
2022-12-29T15:37:32.873Z,8.80
2022-12-29T15:39:59.818Z,8.80
2022-12-29T15:42:38.564Z,8.80
2022-12-29T15:45:11.579Z,8.80
2022-12-29T15:47:39.940Z,8.80
2022-12-29T15:50:27.263Z,8.80
2022-12-29T15:52:54.441Z,8.90
2022-12-29T15:55:42.790Z,8.90
2022-12-29T15:58:45.949Z,8.90
2022-12-29T16:01:26.066Z,8.90
2022-12-29T16:03:53.768Z,8.90
2022-12-29T16:06:30.905Z,8.90
2022-12-29T16:09:00.127Z,8.90
2022-12-29T16:11:39.161Z,8.80
2022-12-29T16:14:16.153Z,8.90
2022-12-29T16:16:44.898Z,8.80
2022-12-29T16:19:23.405Z,8.80
2022-12-29T16:21:50.407Z,8.90
2022-12-29T16:24:21.044Z,8.80
2022-12-29T16:26:50.627Z,8.90
2022-12-29T16:29:18.114Z,8.80
2022-12-29T16:31:54.491Z,8.80
2022-12-29T16:34:28.878Z,8.80
2022-12-29T16:37:00.136Z,8.90
2022-12-29T16:39:36.664Z,8.80
2022-12-29T16:42:45.623Z,8.80
2022-12-29T16:45:54.655Z,8.70
2022-12-29T16:48:25.821Z,8.70
2022-12-29T16:50:52.960Z,8.70
2022-12-29T16:53:27.701Z,8.60
2022-12-29T16:55:56.168Z,8.60
2022-12-29T16:58:32.828Z,8.50
2022-12-29T17:01:01.130Z,8.50
2022-12-29T17:03:36.165Z,8.40
2022-12-29T17:06:03.899Z,8.40
2022-12-29T17:08:40.224Z,8.40
2022-12-29T17:11:42.151Z,8.40
2022-12-29T17:14:43.149Z,8.40
2022-12-29T17:17:17.664Z,8.30
2022-12-29T17:19:51.382Z,8.30
2022-12-29T17:22:29.937Z,8.30
2022-12-29T17:24:59.548Z,8.30
2022-12-29T17:27:28.801Z,8.30
2022-12-29T17:30:11.532Z,8.30
2022-12-29T17:32:39.015Z,8.30
2022-12-29T17:35:05.947Z,8.30
2022-12-29T17:37:37.943Z,8.20
2022-12-29T17:40:07.304Z,8.20
2022-12-29T17:42:38.327Z,8.20
2022-12-29T17:45:05.501Z,8.20
2022-12-29T17:47:32.905Z,8.10
2022-12-29T17:50:00.318Z,8.10
2022-12-29T17:52:27.101Z,8.10
2022-12-29T17:54:55.343Z,8.10
2022-12-29T17:57:22.259Z,8.00
2022-12-29T17:59:49.293Z,8.10
2022-12-29T18:02:29.509Z,8.10
2022-12-29T18:04:58.385Z,8.10
2022-12-29T18:07:33.911Z,8.10
2022-12-29T18:10:03.285Z,8.10
2022-12-29T18:12:40.238Z,8.10
2022-12-29T18:15:16.382Z,8.10
2022-12-29T18:17:43.132Z,8.10
2022-12-29T18:20:09.897Z,8.10
2022-12-29T18:22:36.768Z,8.00
2022-12-29T18:25:39.674Z,8.00
2022-12-29T18:28:09.256Z,8.00
2022-12-29T18:30:37.285Z,8.00
2022-12-29T18:33:04.846Z,7.90
2022-12-29T18:35:42.051Z,7.90
2022-12-29T18:38:16.828Z,7.80
2022-12-29T18:40:58.363Z,7.80
2022-12-29T18:43:53.367Z,7.80
2022-12-29T18:46:35.079Z,7.70
2022-12-29T18:49:03.426Z,7.70
2022-12-29T18:51:47.989Z,7.70
2022-12-29T18:57:28.515Z,7.70
2022-12-29T18:59:55.544Z,7.70
2022-12-29T19:02:22.343Z,7.70
2022-12-29T19:04:53.094Z,7.70
2022-12-29T19:07:23.046Z,7.70
2022-12-29T19:09:49.767Z,7.70
2022-12-29T19:12:17.153Z,7.70
2022-12-29T19:14:44.805Z,7.60
2022-12-29T19:17:16.342Z,7.70
2022-12-29T19:19:43.527Z,7.60
2022-12-29T19:22:39.170Z,7.70
2022-12-29T19:25:06.981Z,7.70
2022-12-29T19:27:35.203Z,7.70
2022-12-29T19:30:02.713Z,7.70
2022-12-29T19:32:32.574Z,7.70
2022-12-29T19:34:59.516Z,7.70
2022-12-29T19:37:26.327Z,7.60
2022-12-29T19:39:53.382Z,7.70
2022-12-29T19:42:20.266Z,7.70
2022-12-29T19:44:47.229Z,7.70
2022-12-29T19:47:14.532Z,7.70
2022-12-29T19:49:41.361Z,7.70
2022-12-29T19:52:08.169Z,7.60
2022-12-29T19:57:24.036Z,7.70
2022-12-29T19:59:57.792Z,7.60
2022-12-29T20:02:30.845Z,7.60
2022-12-29T20:04:57.792Z,7.60
2022-12-29T20:07:25.301Z,7.60
2022-12-29T20:09:52.158Z,7.60
2022-12-29T20:12:23.033Z,7.60
2022-12-29T20:14:56.498Z,7.50
2022-12-29T20:20:56.986Z,7.50
2022-12-29T20:23:24.079Z,7.40
2022-12-29T20:25:55.729Z,7.40
2022-12-29T20:28:23.181Z,7.40
2022-12-29T20:31:20.102Z,7.40
2022-12-29T20:33:47.881Z,7.40
2022-12-29T20:36:17.852Z,7.40
2022-12-29T20:38:45.701Z,7.40
2022-12-29T20:41:13.809Z,7.50
2022-12-29T20:43:41.623Z,7.40
2022-12-29T20:46:08.932Z,7.40
2022-12-29T20:48:36.057Z,7.40
2022-12-29T20:51:02.927Z,7.40
2022-12-29T20:53:31.645Z,7.50
2022-12-29T20:56:05.185Z,7.50
2022-12-29T20:58:32.084Z,7.50
2022-12-29T21:04:01.562Z,7.50
2022-12-29T21:06:28.372Z,7.50
2022-12-29T21:08:55.327Z,7.50
2022-12-29T21:11:22.494Z,7.50
2022-12-29T21:13:49.964Z,7.50
2022-12-29T21:16:18.866Z,7.40
2022-12-29T21:18:45.825Z,7.40
2022-12-29T21:21:21.908Z,7.40
2022-12-29T21:23:49.327Z,7.40
2022-12-29T21:26:19.790Z,7.40
2022-12-29T21:28:47.006Z,7.40
2022-12-29T21:31:30.218Z,7.40
2022-12-29T21:33:57.983Z,7.40
2022-12-29T21:36:25.261Z,7.40
2022-12-29T21:38:52.259Z,7.40
2022-12-29T21:41:19.503Z,7.30
2022-12-29T21:44:06.812Z,7.40
2022-12-29T21:46:35.383Z,7.40
2022-12-29T21:49:02.769Z,7.40
2022-12-29T21:51:48.061Z,7.40
2022-12-29T21:54:33.445Z,7.40
2022-12-29T21:57:00.295Z,7.30
2022-12-29T21:59:45.528Z,7.30
2022-12-29T22:02:45.090Z,7.30
2022-12-29T22:05:32.434Z,7.20
2022-12-29T22:08:17.989Z,7.20
2022-12-29T22:11:05.416Z,7.20
2022-12-29T22:13:33.750Z,7.20
2022-12-29T22:16:04.086Z,7.10
2022-12-29T22:18:31.182Z,7.10
2022-12-29T22:20:58.079Z,7.10
2022-12-29T22:23:25.210Z,7.10
2022-12-29T22:25:51.960Z,7.00
2022-12-29T22:28:18.903Z,7.00
2022-12-29T22:30:45.828Z,7.00
2022-12-29T22:33:12.732Z,7.00
2022-12-29T22:35:39.439Z,7.00
2022-12-29T22:38:06.278Z,7.00
2022-12-29T22:40:33.585Z,7.00
2022-12-29T22:43:00.560Z,7.00
2022-12-29T22:45:27.288Z,7.00
2022-12-29T22:47:54.059Z,7.00
2022-12-29T22:50:20.888Z,7.00
2022-12-29T22:52:47.804Z,7.00
2022-12-29T22:55:14.565Z,7.00
2022-12-29T22:57:41.445Z,7.00
2022-12-29T23:00:09.722Z,7.00
2022-12-29T23:02:36.923Z,7.10
2022-12-29T23:05:05.329Z,7.00
2022-12-29T23:07:34.087Z,7.00
2022-12-29T23:10:01.415Z,7.00
2022-12-29T23:12:32.157Z,7.00
2022-12-29T23:14:59.200Z,6.90
2022-12-29T23:17:26.409Z,6.90
2022-12-29T23:19:53.529Z,6.90
2022-12-29T23:22:20.639Z,6.90
2022-12-29T23:24:47.490Z,6.90
2022-12-29T23:27:14.378Z,6.90
2022-12-29T23:29:41.223Z,6.80
2022-12-29T23:32:08.027Z,6.80
2022-12-29T23:34:34.775Z,6.80
2022-12-29T23:37:01.419Z,6.80
2022-12-29T23:39:29.094Z,6.80
2022-12-29T23:41:55.866Z,6.80
2022-12-29T23:44:22.604Z,6.70
2022-12-29T23:46:49.506Z,6.70
2022-12-29T23:49:16.372Z,6.70
2022-12-29T23:51:43.630Z,6.70
2022-12-29T23:54:10.325Z,6.70
2022-12-29T23:56:37.168Z,6.60
2022-12-29T23:59:05.771Z,6.60
